sensor_id;sensor_type;location;lat;lon;timestamp;pressure;altitude;pressure_sealevel;temperature;humidity
69855;BME280;57146;48.140;16.304;2022-09-09T00:04:27;99214.41;;;15.31;78.10
69855;BME280;57146;48.140;16.304;2022-09-09T00:21:14;99208.19;;;15.03;79.40
69855;BME280;57146;48.140;16.304;2022-09-09T00:23:51;99200.13;;;14.87;80.16
69855;BME280;57146;48.140;16.304;2022-09-09T00:26:56;99206.84;;;14.84;80.93
69855;BME280;57146;48.140;16.304;2022-09-09T00:29:45;99200.03;;;14.83;80.45
69855;BME280;57146;48.140;16.304;2022-09-09T00:32:17;99206.06;;;14.72;80.60
69855;BME280;57146;48.140;16.304;2022-09-09T00:34:51;99197.34;;;14.71;80.60
69855;BME280;57146;48.140;16.304;2022-09-09T00:37:22;99201.75;;;14.67;81.07
69855;BME280;57146;48.140;16.304;2022-09-09T00:39:51;99208.69;;;14.72;80.83
69855;BME280;57146;48.140;16.304;2022-09-09T00:42:26;99200.63;;;14.68;80.98
69855;BME280;57146;48.140;16.304;2022-09-09T00:45:02;99201.81;;;14.58;81.48
69855;BME280;57146;48.140;16.304;2022-09-09T00:56:18;99207.53;;;14.48;81.92
69855;BME280;57146;48.140;16.304;2022-09-09T01:01:45;99215.66;;;14.43;82.50
69855;BME280;57146;48.140;16.304;2022-09-09T01:04:18;99216.41;;;14.31;82.23
69855;BME280;57146;48.140;16.304;2022-09-09T01:06:56;99218.28;;;14.31;82.87
69855;BME280;57146;48.140;16.304;2022-09-09T01:09:34;99220.34;;;14.58;82.00
69855;BME280;57146;48.140;16.304;2022-09-09T01:17:44;99234.16;;;14.52;80.69
69855;BME280;57146;48.140;16.304;2022-09-09T01:20:18;99227.22;;;14.38;81.25
69855;BME280;57146;48.140;16.304;2022-09-09T01:28:25;99233.72;;;14.62;78.84
69855;BME280;57146;48.140;16.304;2022-09-09T01:30:58;99233.66;;;14.83;77.88
69855;BME280;57146;48.140;16.304;2022-09-09T01:33:30;99238.00;;;14.88;77.44
69855;BME280;57146;48.140;16.304;2022-09-09T01:38:35;99231.75;;;14.59;78.90
69855;BME280;57146;48.140;16.304;2022-09-09T01:41:03;99236.72;;;14.40;80.02
69855;BME280;57146;48.140;16.304;2022-09-09T01:43:42;99247.19;;;14.36;80.31
69855;BME280;57146;48.140;16.304;2022-09-09T01:46:10;99241.63;;;14.29;80.76
69855;BME280;57146;48.140;16.304;2022-09-09T01:48:41;99238.09;;;14.25;80.60
69855;BME280;57146;48.140;16.304;2022-09-09T01:51:09;99246.44;;;14.14;81.18
69855;BME280;57146;48.140;16.304;2022-09-09T01:53:37;99243.78;;;14.14;81.46
69855;BME280;57146;48.140;16.304;2022-09-09T02:04:12;99226.75;;;14.03;81.38
69855;BME280;57146;48.140;16.304;2022-09-09T02:06:43;99237.06;;;13.96;82.12
69855;BME280;57146;48.140;16.304;2022-09-09T02:09:26;99234.03;;;14.06;81.25
69855;BME280;57146;48.140;16.304;2022-09-09T02:12:14;99229.00;;;13.93;82.30
69855;BME280;57146;48.140;16.304;2022-09-09T02:14:55;99230.63;;;13.85;82.23
69855;BME280;57146;48.140;16.304;2022-09-09T02:17:29;99221.06;;;14.13;82.13
69855;BME280;57146;48.140;16.304;2022-09-09T02:20:13;99220.72;;;14.15;80.83
69855;BME280;57146;48.140;16.304;2022-09-09T02:22:48;99228.16;;;14.01;81.42
69855;BME280;57146;48.140;16.304;2022-09-09T02:25:20;99219.66;;;13.95;81.64
69855;BME280;57146;48.140;16.304;2022-09-09T02:27:50;99215.00;;;13.92;81.70
69855;BME280;57146;48.140;16.304;2022-09-09T02:30:18;99222.53;;;13.81;82.47
69855;BME280;57146;48.140;16.304;2022-09-09T02:32:57;99219.06;;;13.89;82.30
69855;BME280;57146;48.140;16.304;2022-09-09T02:35:45;99222.69;;;13.85;82.32
69855;BME280;57146;48.140;16.304;2022-09-09T02:38:17;99227.06;;;13.81;82.51
69855;BME280;57146;48.140;16.304;2022-09-09T02:41:01;99233.22;;;13.64;82.87
69855;BME280;57146;48.140;16.304;2022-09-09T02:43:34;99232.34;;;13.81;82.30
69855;BME280;57146;48.140;16.304;2022-09-09T02:46:47;99232.09;;;13.74;82.51
69855;BME280;57146;48.140;16.304;2022-09-09T02:52:02;99237.16;;;13.58;83.60
69855;BME280;57146;48.140;16.304;2022-09-09T02:54:31;99236.00;;;13.68;83.45
69855;BME280;57146;48.140;16.304;2022-09-09T02:59:39;99238.19;;;13.65;83.47
69855;BME280;57146;48.140;16.304;2022-09-09T03:02:06;99243.09;;;13.76;82.75
69855;BME280;57146;48.140;16.304;2022-09-09T03:04:34;99238.78;;;13.71;83.18
69855;BME280;57146;48.140;16.304;2022-09-09T03:07:01;99232.47;;;13.63;83.07
69855;BME280;57146;48.140;16.304;2022-09-09T03:09:28;99223.88;;;13.67;83.87
69855;BME280;57146;48.140;16.304;2022-09-09T03:11:56;99227.31;;;13.67;83.39
69855;BME280;57146;48.140;16.304;2022-09-09T03:14:23;99229.97;;;13.58;83.97
69855;BME280;57146;48.140;16.304;2022-09-09T03:16:52;99221.78;;;13.51;84.06
69855;BME280;57146;48.140;16.304;2022-09-09T03:19:20;99222.88;;;13.50;84.50
69855;BME280;57146;48.140;16.304;2022-09-09T03:21:48;99222.41;;;13.48;84.57
69855;BME280;57146;48.140;16.304;2022-09-09T03:24:15;99217.97;;;13.40;85.34
69855;BME280;57146;48.140;16.304;2022-09-09T03:26:42;99222.81;;;13.38;85.24
69855;BME280;57146;48.140;16.304;2022-09-09T03:29:12;99224.06;;;13.32;85.21
69855;BME280;57146;48.140;16.304;2022-09-09T03:31:40;99220.03;;;13.26;85.17
69855;BME280;57146;48.140;16.304;2022-09-09T03:34:08;99222.38;;;13.27;85.30
69855;BME280;57146;48.140;16.304;2022-09-09T03:36:35;99221.69;;;13.39;84.97
69855;BME280;57146;48.140;16.304;2022-09-09T03:39:04;99215.81;;;13.33;84.63
69855;BME280;57146;48.140;16.304;2022-09-09T03:41:31;99217.69;;;13.33;84.89
69855;BME280;57146;48.140;16.304;2022-09-09T03:44:00;99222.53;;;13.31;85.46
69855;BME280;57146;48.140;16.304;2022-09-09T03:46:31;99227.63;;;13.36;85.56
69855;BME280;57146;48.140;16.304;2022-09-09T03:48:59;99232.41;;;13.43;85.01
69855;BME280;57146;48.140;16.304;2022-09-09T03:51:25;99235.47;;;13.53;84.51
69855;BME280;57146;48.140;16.304;2022-09-09T03:53:53;99230.34;;;13.48;85.05
69855;BME280;57146;48.140;16.304;2022-09-09T03:56:20;99220.09;;;13.47;84.81
69855;BME280;57146;48.140;16.304;2022-09-09T03:58:47;99227.84;;;13.52;84.55
69855;BME280;57146;48.140;16.304;2022-09-09T04:01:14;99233.47;;;13.50;84.51
69855;BME280;57146;48.140;16.304;2022-09-09T04:03:42;99229.13;;;13.46;84.73
69855;BME280;57146;48.140;16.304;2022-09-09T04:06:10;99231.66;;;13.42;84.92
69855;BME280;57146;48.140;16.304;2022-09-09T04:08:37;99234.91;;;13.39;84.63
69855;BME280;57146;48.140;16.304;2022-09-09T04:11:06;99238.81;;;13.41;84.49
69855;BME280;57146;48.140;16.304;2022-09-09T04:13:35;99244.59;;;13.35;84.52
69855;BME280;57146;48.140;16.304;2022-09-09T04:16:04;99236.84;;;13.21;84.58
69855;BME280;57146;48.140;16.304;2022-09-09T04:18:33;99235.47;;;13.24;84.50
69855;BME280;57146;48.140;16.304;2022-09-09T04:21:02;99250.81;;;13.22;85.12
69855;BME280;57146;48.140;16.304;2022-09-09T04:23:30;99245.00;;;13.46;84.56
69855;BME280;57146;48.140;16.304;2022-09-09T04:25:59;99252.22;;;13.66;83.71
69855;BME280;57146;48.140;16.304;2022-09-09T04:28:29;99253.25;;;13.74;83.09
69855;BME280;57146;48.140;16.304;2022-09-09T04:31:07;99238.88;;;13.54;83.23
69855;BME280;57146;48.140;16.304;2022-09-09T04:33:35;99239.09;;;13.40;84.13
69855;BME280;57146;48.140;16.304;2022-09-09T04:36:07;99244.94;;;13.54;84.07
69855;BME280;57146;48.140;16.304;2022-09-09T04:38:34;99252.59;;;13.47;84.05
69855;BME280;57146;48.140;16.304;2022-09-09T04:41:02;99257.66;;;13.31;84.54
69855;BME280;57146;48.140;16.304;2022-09-09T04:43:29;99262.03;;;13.27;85.25
69855;BME280;57146;48.140;16.304;2022-09-09T04:45:57;99262.03;;;13.27;85.28
69855;BME280;57146;48.140;16.304;2022-09-09T04:48:24;99264.63;;;13.36;84.88
69855;BME280;57146;48.140;16.304;2022-09-09T04:51:00;99272.03;;;13.51;84.00
69855;BME280;57146;48.140;16.304;2022-09-09T04:53:29;99278.47;;;13.41;84.15
69855;BME280;57146;48.140;16.304;2022-09-09T04:56:03;99280.34;;;13.32;84.71
69855;BME280;57146;48.140;16.304;2022-09-09T04:58:33;99287.03;;;13.30;84.71
69855;BME280;57146;48.140;16.304;2022-09-09T05:01:08;99276.16;;;13.23;85.00
69855;BME280;57146;48.140;16.304;2022-09-09T05:03:37;99278.50;;;13.15;85.53
69855;BME280;57146;48.140;16.304;2022-09-09T05:06:09;99274.47;;;13.18;85.16
69855;BME280;57146;48.140;16.304;2022-09-09T05:08:37;99266.53;;;13.18;85.89
69855;BME280;57146;48.140;16.304;2022-09-09T05:11:27;99272.59;;;13.18;85.75
69855;BME280;57146;48.140;16.304;2022-09-09T05:13:59;99278.66;;;13.19;85.58
69855;BME280;57146;48.140;16.304;2022-09-09T05:16:28;99277.13;;;13.18;86.03
69855;BME280;57146;48.140;16.304;2022-09-09T05:18:55;99278.81;;;13.23;85.84
69855;BME280;57146;48.140;16.304;2022-09-09T05:21:24;99274.28;;;13.32;84.69
69855;BME280;57146;48.140;16.304;2022-09-09T05:23:51;99285.00;;;13.35;84.18
69855;BME280;57146;48.140;16.304;2022-09-09T05:26:20;99276.94;;;13.32;85.45
69855;BME280;57146;48.140;16.304;2022-09-09T05:28:49;99272.09;;;13.34;83.68
69855;BME280;57146;48.140;16.304;2022-09-09T05:31:18;99280.97;;;13.38;83.78
69855;BME280;57146;48.140;16.304;2022-09-09T05:33:48;99282.75;;;13.55;82.78
69855;BME280;57146;48.140;16.304;2022-09-09T05:36:20;99292.44;;;13.80;82.17
69855;BME280;57146;48.140;16.304;2022-09-09T05:38:53;99303.78;;;13.81;83.30
69855;BME280;57146;48.140;16.304;2022-09-09T05:41:20;99292.56;;;13.84;83.24
69855;BME280;57146;48.140;16.304;2022-09-09T05:43:47;99282.16;;;13.79;83.33
69855;BME280;57146;48.140;16.304;2022-09-09T05:46:16;99285.41;;;13.84;83.57
69855;BME280;57146;48.140;16.304;2022-09-09T05:48:47;99284.44;;;13.89;83.62
69855;BME280;57146;48.140;16.304;2022-09-09T05:51:21;99280.19;;;13.97;83.24
69855;BME280;57146;48.140;16.304;2022-09-09T05:53:49;99278.31;;;13.97;83.34
69855;BME280;57146;48.140;16.304;2022-09-09T05:56:21;99283.88;;;14.04;83.45
69855;BME280;57146;48.140;16.304;2022-09-09T05:58:49;99292.53;;;14.13;82.83
69855;BME280;57146;48.140;16.304;2022-09-09T06:01:26;99294.53;;;14.17;83.14
69855;BME280;57146;48.140;16.304;2022-09-09T06:03:56;99284.84;;;14.21;81.99
69855;BME280;57146;48.140;16.304;2022-09-09T06:06:25;99277.09;;;14.16;82.08
69855;BME280;57146;48.140;16.304;2022-09-09T06:08:56;99272.25;;;14.18;81.43
69855;BME280;57146;48.140;16.304;2022-09-09T06:11:27;99272.59;;;14.16;82.08
69855;BME280;57146;48.140;16.304;2022-09-09T06:13:54;99265.84;;;14.19;82.26
69855;BME280;57146;48.140;16.304;2022-09-09T06:16:23;99272.84;;;14.23;82.17
69855;BME280;57146;48.140;16.304;2022-09-09T06:18:52;99265.94;;;14.31;82.24
69855;BME280;57146;48.140;16.304;2022-09-09T06:21:22;99260.56;;;14.40;82.30
69855;BME280;57146;48.140;16.304;2022-09-09T06:23:50;99263.91;;;14.49;82.03
69855;BME280;57146;48.140;16.304;2022-09-09T06:26:22;99265.59;;;14.53;81.93
69855;BME280;57146;48.140;16.304;2022-09-09T06:28:51;99253.72;;;14.59;82.58
69855;BME280;57146;48.140;16.304;2022-09-09T06:31:21;99253.88;;;14.75;82.75
69855;BME280;57146;48.140;16.304;2022-09-09T06:33:54;99263.63;;;14.96;81.31
69855;BME280;57146;48.140;16.304;2022-09-09T06:36:28;99251.38;;;15.03;80.57
69855;BME280;57146;48.140;16.304;2022-09-09T06:38:55;99254.72;;;15.13;80.58
69855;BME280;57146;48.140;16.304;2022-09-09T06:41:26;99267.31;;;15.16;80.86
69855;BME280;57146;48.140;16.304;2022-09-09T06:43:54;99266.75;;;15.22;80.63
69855;BME280;57146;48.140;16.304;2022-09-09T06:46:31;99273.84;;;15.30;79.67
69855;BME280;57146;48.140;16.304;2022-09-09T06:48:59;99274.06;;;15.25;80.77
69855;BME280;57146;48.140;16.304;2022-09-09T06:51:31;99269.53;;;15.26;80.50
69855;BME280;57146;48.140;16.304;2022-09-09T06:54:00;99282.13;;;15.29;81.46
69855;BME280;57146;48.140;16.304;2022-09-09T06:56:33;99274.28;;;15.32;81.80
69855;BME280;57146;48.140;16.304;2022-09-09T06:59:06;99261.59;;;15.38;80.83
69855;BME280;57146;48.140;16.304;2022-09-09T07:01:36;99261.91;;;15.49;80.92
69855;BME280;57146;48.140;16.304;2022-09-09T07:04:07;99261.47;;;15.59;80.79
69855;BME280;57146;48.140;16.304;2022-09-09T07:06:38;99255.97;;;15.76;80.45
69855;BME280;57146;48.140;16.304;2022-09-09T07:09:08;99256.94;;;15.84;79.35
69855;BME280;57146;48.140;16.304;2022-09-09T07:11:43;99259.34;;;15.89;79.42
69855;BME280;57146;48.140;16.304;2022-09-09T07:14:12;99269.75;;;15.94;78.71
69855;BME280;57146;48.140;16.304;2022-09-09T07:16:42;99274.63;;;15.92;78.29
69855;BME280;57146;48.140;16.304;2022-09-09T07:19:10;99268.66;;;15.95;78.82
69855;BME280;57146;48.140;16.304;2022-09-09T07:21:38;99273.03;;;16.03;79.40
69855;BME280;57146;48.140;16.304;2022-09-09T07:24:05;99282.91;;;16.03;78.60
69855;BME280;57146;48.140;16.304;2022-09-09T07:26:32;99274.13;;;16.15;78.81
69855;BME280;57146;48.140;16.304;2022-09-09T07:29:01;99283.28;;;16.30;78.24
69855;BME280;57146;48.140;16.304;2022-09-09T07:31:33;99278.47;;;16.47;78.34
69855;BME280;57146;48.140;16.304;2022-09-09T07:34:07;99275.75;;;16.60;77.13
69855;BME280;57146;48.140;16.304;2022-09-09T07:36:39;99272.81;;;16.65;76.96
69855;BME280;57146;48.140;16.304;2022-09-09T07:39:10;99276.50;;;16.60;75.80
69855;BME280;57146;48.140;16.304;2022-09-09T07:41:40;99275.75;;;16.60;75.83
69855;BME280;57146;48.140;16.304;2022-09-09T07:44:13;99277.72;;;16.63;75.67
69855;BME280;57146;48.140;16.304;2022-09-09T07:46:43;99274.28;;;16.62;74.32
69855;BME280;57146;48.140;16.304;2022-09-09T07:49:15;99281.16;;;16.63;74.47
69855;BME280;57146;48.140;16.304;2022-09-09T07:51:44;99279.81;;;16.69;73.25
69855;BME280;57146;48.140;16.304;2022-09-09T07:54:15;99279.66;;;16.78;73.65
69855;BME280;57146;48.140;16.304;2022-09-09T07:56:44;99288.94;;;16.84;73.19
69855;BME280;57146;48.140;16.304;2022-09-09T07:59:11;99282.28;;;16.90;72.83
69855;BME280;57146;48.140;16.304;2022-09-09T08:01:46;99283.19;;;16.82;73.65
69855;BME280;57146;48.140;16.304;2022-09-09T08:04:19;99296.56;;;16.86;74.29
69855;BME280;57146;48.140;16.304;2022-09-09T08:06:55;99297.09;;;16.91;73.85
69855;BME280;57146;48.140;16.304;2022-09-09T08:09:25;99290.75;;;16.96;74.15
69855;BME280;57146;48.140;16.304;2022-09-09T08:11:55;99289.84;;;17.04;74.42
69855;BME280;57146;48.140;16.304;2022-09-09T08:14:24;99294.22;;;17.12;74.31
69855;BME280;57146;48.140;16.304;2022-09-09T08:16:51;99292.41;;;17.16;73.37
69855;BME280;57146;48.140;16.304;2022-09-09T08:19:22;99285.06;;;17.26;71.86
69855;BME280;57146;48.140;16.304;2022-09-09T08:21:50;99284.09;;;17.34;72.17
69855;BME280;57146;48.140;16.304;2022-09-09T08:24:17;99290.88;;;17.47;72.71
69855;BME280;57146;48.140;16.304;2022-09-09T08:26:48;99295.81;;;17.64;72.21
69855;BME280;57146;48.140;16.304;2022-09-09T08:29:17;99294.34;;;17.67;69.82
69855;BME280;57146;48.140;16.304;2022-09-09T08:31:53;99299.28;;;17.65;70.23
69855;BME280;57146;48.140;16.304;2022-09-09T08:34:21;99297.47;;;17.69;70.71
69855;BME280;57146;48.140;16.304;2022-09-09T08:36:50;99288.97;;;17.79;70.19
69855;BME280;57146;48.140;16.304;2022-09-09T08:39:22;99291.25;;;17.97;70.28
69855;BME280;57146;48.140;16.304;2022-09-09T08:53:20;99274.06;;;18.52;67.66
69855;BME280;57146;48.140;16.304;2022-09-09T08:55:52;99273.44;;;18.59;67.55
69855;BME280;57146;48.140;16.304;2022-09-09T08:58:30;99273.44;;;18.78;67.73
69855;BME280;57146;48.140;16.304;2022-09-09T09:01:27;99270.31;;;18.96;66.38
69855;BME280;57146;48.140;16.304;2022-09-09T09:04:25;99274.16;;;18.98;66.02
69855;BME280;57146;48.140;16.304;2022-09-09T09:09:58;99259.28;;;19.20;64.78
69855;BME280;57146;48.140;16.304;2022-09-09T09:12:40;99265.44;;;19.24;65.18
69855;BME280;57146;48.140;16.304;2022-09-09T09:15:21;99255.19;;;19.26;62.63
69855;BME280;57146;48.140;16.304;2022-09-09T09:17:51;99254.22;;;19.38;61.85
69855;BME280;57146;48.140;16.304;2022-09-09T09:20:43;99257.25;;;19.36;61.18
69855;BME280;57146;48.140;16.304;2022-09-09T09:23:23;99257.41;;;19.47;61.53
69855;BME280;57146;48.140;16.304;2022-09-09T09:25:56;99247.50;;;19.48;62.22
69855;BME280;57146;48.140;16.304;2022-09-09T09:28:28;99243.66;;;19.45;62.46
69855;BME280;57146;48.140;16.304;2022-09-09T09:31:08;99248.94;;;19.42;62.44
69855;BME280;57146;48.140;16.304;2022-09-09T09:33:45;99245.50;;;19.41;61.12
69855;BME280;57146;48.140;16.304;2022-09-09T09:36:14;99238.31;;;19.45;61.60
69855;BME280;57146;48.140;16.304;2022-09-09T09:38:56;99236.41;;;19.46;62.51
69855;BME280;57146;48.140;16.304;2022-09-09T09:41:44;99238.84;;;19.54;61.41
69855;BME280;57146;48.140;16.304;2022-09-09T09:44:26;99241.50;;;19.54;62.56
69855;BME280;57146;48.140;16.304;2022-09-09T09:47:12;99231.34;;;19.64;62.67
69855;BME280;57146;48.140;16.304;2022-09-09T09:49:55;99236.69;;;19.64;62.97
69855;BME280;57146;48.140;16.304;2022-09-09T09:52:25;99235.19;;;19.66;62.25
69855;BME280;57146;48.140;16.304;2022-09-09T09:54:54;99240.00;;;19.83;61.29
69855;BME280;57146;48.140;16.304;2022-09-09T09:57:31;99222.63;;;19.97;61.48
69855;BME280;57146;48.140;16.304;2022-09-09T10:02:50;99226.19;;;20.08;60.92
69855;BME280;57146;48.140;16.304;2022-09-09T10:05:27;99235.53;;;20.21;60.89
69855;BME280;57146;48.140;16.304;2022-09-09T10:11:02;99225.75;;;20.36;61.54
69855;BME280;57146;48.140;16.304;2022-09-09T10:19:36;99229.91;;;20.67;57.48
69855;BME280;57146;48.140;16.304;2022-09-09T10:30:50;99221.41;;;20.58;58.00
69855;BME280;57146;48.140;16.304;2022-09-09T10:36:01;99219.28;;;20.74;59.06
69855;BME280;57146;48.140;16.304;2022-09-09T10:38:40;99223.22;;;20.91;57.60
69855;BME280;57146;48.140;16.304;2022-09-09T10:44:18;99211.09;;;21.04;59.74
69855;BME280;57146;48.140;16.304;2022-09-09T10:55:35;99222.88;;;21.44;55.64
69855;BME280;57146;48.140;16.304;2022-09-09T10:58:04;99221.41;;;21.50;56.53
69855;BME280;57146;48.140;16.304;2022-09-09T11:00:38;99227.84;;;21.39;55.76
69855;BME280;57146;48.140;16.304;2022-09-09T11:05:42;99224.31;;;21.31;55.37
69855;BME280;57146;48.140;16.304;2022-09-09T11:08:13;99214.28;;;21.17;54.26
69855;BME280;57146;48.140;16.304;2022-09-09T11:10:58;99216.16;;;21.13;54.37
69855;BME280;57146;48.140;16.304;2022-09-09T11:13:53;99213.06;;;21.11;54.89
69855;BME280;57146;48.140;16.304;2022-09-09T11:16:57;99219.94;;;21.09;54.77
69855;BME280;57146;48.140;16.304;2022-09-09T11:19:36;99215.00;;;21.14;54.41
69855;BME280;57146;48.140;16.304;2022-09-09T11:33:51;99198.72;;;21.34;54.40
69855;BME280;57146;48.140;16.304;2022-09-09T11:36:54;99202.50;;;21.33;55.35
69855;BME280;57146;48.140;16.304;2022-09-09T11:39:37;99194.47;;;21.33;56.13
69855;BME280;57146;48.140;16.304;2022-09-09T11:44:40;99185.44;;;21.51;54.38
69855;BME280;57146;48.140;16.304;2022-09-09T11:47:26;99183.94;;;21.58;55.41
69855;BME280;57146;48.140;16.304;2022-09-09T11:49:53;99188.16;;;21.62;54.53
69855;BME280;57146;48.140;16.304;2022-09-09T11:52:34;99181.69;;;21.63;54.72
69855;BME280;57146;48.140;16.304;2022-09-09T11:55:20;99182.47;;;21.67;54.24
69855;BME280;57146;48.140;16.304;2022-09-09T11:57:58;99189.34;;;21.68;55.16
69855;BME280;57146;48.140;16.304;2022-09-09T12:03:01;99194.34;;;21.77;56.11
69855;BME280;57146;48.140;16.304;2022-09-09T12:05:42;99185.97;;;21.82;54.18
69855;BME280;57146;48.140;16.304;2022-09-09T12:08:16;99184.81;;;21.83;53.13
69855;BME280;57146;48.140;16.304;2022-09-09T12:10:58;99179.91;;;21.96;52.90
69855;BME280;57146;48.140;16.304;2022-09-09T12:13:26;99179.16;;;21.99;52.55
69855;BME280;57146;48.140;16.304;2022-09-09T12:15:59;99164.59;;;22.04;51.33
69855;BME280;57146;48.140;16.304;2022-09-09T12:18:34;99167.25;;;21.96;50.99
69855;BME280;57146;48.140;16.304;2022-09-09T12:21:51;99164.59;;;21.96;52.13
69855;BME280;57146;48.140;16.304;2022-09-09T12:24:49;99159.97;;;21.97;51.39
69855;BME280;57146;48.140;16.304;2022-09-09T12:27:28;99158.06;;;22.01;50.61
69855;BME280;57146;48.140;16.304;2022-09-09T12:30:04;99151.97;;;22.00;50.79
69855;BME280;57146;48.140;16.304;2022-09-09T12:32:34;99151.97;;;22.00;50.33
69855;BME280;57146;48.140;16.304;2022-09-09T12:35:04;99154.66;;;22.08;50.46
69855;BME280;57146;48.140;16.304;2022-09-09T12:37:48;99160.00;;;22.04;50.46
69855;BME280;57146;48.140;16.304;2022-09-09T12:40:22;99151.97;;;22.00;50.37
69855;BME280;57146;48.140;16.304;2022-09-09T12:42:50;99153.47;;;21.98;52.24
69855;BME280;57146;48.140;16.304;2022-09-09T12:45:20;99150.41;;;21.96;50.49
69855;BME280;57146;48.140;16.304;2022-09-09T12:48:11;99146.59;;;21.97;50.27
69855;BME280;57146;48.140;16.304;2022-09-09T12:50:56;99141.97;;;21.90;50.76
69855;BME280;57146;48.140;16.304;2022-09-09T12:53:31;99135.09;;;21.93;49.74
69855;BME280;57146;48.140;16.304;2022-09-09T12:56:07;99132.41;;;21.96;49.63
69855;BME280;57146;48.140;16.304;2022-09-09T12:58:38;99128.59;;;21.97;50.28
69855;BME280;57146;48.140;16.304;2022-09-09T13:01:05;99125.16;;;21.97;50.72
69855;BME280;57146;48.140;16.304;2022-09-09T13:03:41;99127.47;;;21.98;50.15
69855;BME280;57146;48.140;16.304;2022-09-09T13:06:18;99121.69;;;21.93;49.78
69855;BME280;57146;48.140;16.304;2022-09-09T13:08:52;99117.50;;;21.92;50.15
69855;BME280;57146;48.140;16.304;2022-09-09T13:11:28;99111.72;;;21.90;51.03
69855;BME280;57146;48.140;16.304;2022-09-09T13:13:58;99105.59;;;21.89;49.89
69855;BME280;57146;48.140;16.304;2022-09-09T13:16:34;99102.53;;;21.91;50.24
69855;BME280;57146;48.140;16.304;2022-09-09T13:19:13;99104.47;;;21.90;50.85
69855;BME280;57146;48.140;16.304;2022-09-09T13:21:41;99109.06;;;21.90;50.66
69855;BME280;57146;48.140;16.304;2022-09-09T13:24:40;99115.19;;;21.94;51.00
69855;BME280;57146;48.140;16.304;2022-09-09T13:27:50;99115.19;;;21.94;50.82
69855;BME280;57146;48.140;16.304;2022-09-09T13:35:36;99114.78;;;21.81;50.49
69855;BME280;57146;48.140;16.304;2022-09-09T13:38:14;99115.13;;;21.76;51.37
69855;BME280;57146;48.140;16.304;2022-09-09T13:41:02;99119.72;;;21.72;51.77
69855;BME280;57146;48.140;16.304;2022-09-09T13:43:41;99111.28;;;21.70;50.51
69855;BME280;57146;48.140;16.304;2022-09-09T13:46:39;99106.69;;;21.67;51.73
69855;BME280;57146;48.140;16.304;2022-09-09T13:51:41;99102.09;;;21.64;51.92
69855;BME280;57146;48.140;16.304;2022-09-09T13:54:09;99104.00;;;21.60;51.57
69855;BME280;57146;48.140;16.304;2022-09-09T13:56:38;99101.31;;;21.56;51.83
69855;BME280;57146;48.140;16.304;2022-09-09T13:59:09;99094.03;;;21.60;50.96
69855;BME280;57146;48.140;16.304;2022-09-09T14:01:37;99093.66;;;21.58;51.50
69855;BME280;57146;48.140;16.304;2022-09-09T14:04:04;99091.72;;;21.55;51.68
69855;BME280;57146;48.140;16.304;2022-09-09T14:06:31;99100.91;;;21.58;51.51
69855;BME280;57146;48.140;16.304;2022-09-09T14:08:58;99102.81;;;21.54;52.03
69855;BME280;57146;48.140;16.304;2022-09-09T14:11:25;99112.03;;;21.56;51.52
69855;BME280;57146;48.140;16.304;2022-09-09T14:13:52;99119.31;;;21.73;53.96
69855;BME280;57146;48.140;16.304;2022-09-09T14:16:19;99133.06;;;21.61;55.22
69855;BME280;57146;48.140;16.304;2022-09-09T14:18:46;99133.97;;;21.17;58.21
69855;BME280;57146;48.140;16.304;2022-09-09T14:21:13;99147.19;;;20.89;59.53
69855;BME280;57146;48.140;16.304;2022-09-09T14:23:40;99148.06;;;20.59;60.93
69855;BME280;57146;48.140;16.304;2022-09-09T14:26:08;99142.88;;;20.36;62.45
69855;BME280;57146;48.140;16.304;2022-09-09T14:28:36;99142.03;;;20.25;62.89
69855;BME280;57146;48.140;16.304;2022-09-09T14:31:20;99143.03;;;20.13;63.07
69855;BME280;57146;48.140;16.304;2022-09-09T14:33:47;99141.84;;;20.07;63.11
69855;BME280;57146;48.140;16.304;2022-09-09T14:36:14;99147.50;;;20.02;63.41
69855;BME280;57146;48.140;16.304;2022-09-09T14:38:41;99148.22;;;19.99;63.64
69855;BME280;57146;48.140;16.304;2022-09-09T14:41:12;99140.97;;;19.96;63.89
69855;BME280;57146;48.140;16.304;2022-09-09T14:43:40;99145.94;;;19.97;63.31
69855;BME280;57146;48.140;16.304;2022-09-09T14:46:15;99137.16;;;19.97;63.51
69855;BME280;57146;48.140;16.304;2022-09-09T14:48:42;99139.00;;;19.93;64.04
69855;BME280;57146;48.140;16.304;2022-09-09T14:51:11;99141.66;;;19.89;64.54
69855;BME280;57146;48.140;16.304;2022-09-09T14:53:40;99137.84;;;19.90;64.53
69855;BME280;57146;48.140;16.304;2022-09-09T14:56:11;99133.25;;;19.91;65.53
69855;BME280;57146;48.140;16.304;2022-09-09T14:58:39;99138.53;;;19.83;66.30
69855;BME280;57146;48.140;16.304;2022-09-09T15:01:08;99144.22;;;19.82;66.66
69855;BME280;57146;48.140;16.304;2022-09-09T15:03:37;99144.22;;;19.82;66.41
69855;BME280;57146;48.140;16.304;2022-09-09T15:06:08;99137.34;;;19.81;66.44
69855;BME280;57146;48.140;16.304;2022-09-09T15:08:36;99138.47;;;19.80;65.92
69855;BME280;57146;48.140;16.304;2022-09-09T15:11:09;99138.47;;;19.80;65.31
69855;BME280;57146;48.140;16.304;2022-09-09T15:13:38;99131.56;;;19.75;64.76
69855;BME280;57146;48.140;16.304;2022-09-09T15:16:09;99125.47;;;19.75;63.94
69855;BME280;57146;48.140;16.304;2022-09-09T15:18:36;99127.25;;;19.67;63.84
69855;BME280;57146;48.140;16.304;2022-09-09T15:21:03;99120.00;;;19.64;64.35
69855;BME280;57146;48.140;16.304;2022-09-09T15:23:32;99131.66;;;19.56;64.52
69855;BME280;57146;48.140;16.304;2022-09-09T15:25:59;99133.44;;;19.45;65.60
69855;BME280;57146;48.140;16.304;2022-09-09T15:28:26;99132.03;;;19.24;66.41
69855;BME280;57146;48.140;16.304;2022-09-09T15:30:54;99124.28;;;19.16;66.69
69855;BME280;57146;48.140;16.304;2022-09-09T15:33:21;99119.56;;;19.05;66.45